createdAt,value
2018-08-17T00:02:11.080Z,3.10
2018-08-17T00:04:41.170Z,3.47
2018-08-17T00:07:11.016Z,5.40
2018-08-17T00:09:40.653Z,4.30
2018-08-17T00:12:11.773Z,4.43
2018-08-17T00:14:42.671Z,4.90
2018-08-17T00:17:12.127Z,4.17
2018-08-17T00:19:41.173Z,5.17
2018-08-17T00:22:10.548Z,4.37
2018-08-17T00:24:40.145Z,6.10
2018-08-17T00:27:09.220Z,3.10
2018-08-17T00:29:38.664Z,4.73
2018-08-17T00:32:11.029Z,3.87
2018-08-17T00:34:40.879Z,4.43
2018-08-17T00:37:10.146Z,3.83
2018-08-17T00:39:39.073Z,6.23
2018-08-17T00:42:07.992Z,3.13
2018-08-17T00:44:37.013Z,4.10
2018-08-17T00:47:07.876Z,4.33
2018-08-17T00:49:38.853Z,3.67
2018-08-17T00:52:08.564Z,7.27
2018-08-17T00:54:37.765Z,3.57
2018-08-17T00:57:07.059Z,2.30
2018-08-17T00:59:36.250Z,4.20
2018-08-17T01:02:05.260Z,3.33
2018-08-17T01:04:36.218Z,3.13
2018-08-17T01:07:08.819Z,3.10
2018-08-17T01:09:37.970Z,4.10
2018-08-17T01:12:07.383Z,5.43
2018-08-17T01:14:36.384Z,3.37
2018-08-17T01:17:05.673Z,2.80
2018-08-17T01:19:35.020Z,5.73
2018-08-17T01:22:03.981Z,3.93
2018-08-17T01:24:32.949Z,2.77
2018-08-17T01:27:02.067Z,5.27
2018-08-17T01:29:31.257Z,6.03
2018-08-17T01:32:00.077Z,5.17
2018-08-17T01:34:29.689Z,4.57
2018-08-17T01:36:58.625Z,4.00
2018-08-17T01:39:27.861Z,2.80
2018-08-17T01:41:56.948Z,3.07
2018-08-17T01:44:26.139Z,6.17
2018-08-17T01:46:55.062Z,6.13
2018-08-17T01:49:24.784Z,5.07
2018-08-17T01:51:55.024Z,2.97
2018-08-17T01:54:24.508Z,5.83
2018-08-17T01:56:53.501Z,5.37
2018-08-17T01:59:22.672Z,4.40
2018-08-17T02:01:51.777Z,2.93
2018-08-17T02:04:20.524Z,4.33
2018-08-17T02:06:49.496Z,3.17
2018-08-17T02:09:18.260Z,3.40
2018-08-17T02:11:47.267Z,4.77
2018-08-17T02:14:16.216Z,4.43
2018-08-17T02:16:45.282Z,3.73
2018-08-17T02:19:14.259Z,2.37
2018-08-17T02:21:44.141Z,3.03
2018-08-17T02:24:13.940Z,4.87
2018-08-17T02:26:42.939Z,3.73
2018-08-17T02:29:12.315Z,3.33
2018-08-17T02:31:42.109Z,2.63
2018-08-17T02:34:11.228Z,4.00
2018-08-17T02:36:40.949Z,5.30
2018-08-17T02:39:10.344Z,4.63
2018-08-17T02:41:39.099Z,5.07
2018-08-17T02:44:07.876Z,3.10
2018-08-17T02:46:36.617Z,4.53
2018-08-17T02:49:10.280Z,2.67
2018-08-17T02:51:40.086Z,3.67
2018-08-17T02:54:08.880Z,2.80
2018-08-17T02:56:37.632Z,2.97
2018-08-17T02:59:06.877Z,3.80
2018-08-17T03:01:35.651Z,2.97
2018-08-17T03:04:04.696Z,6.70
2018-08-17T03:06:33.429Z,4.13
2018-08-17T03:09:06.892Z,4.63
2018-08-17T03:11:37.122Z,3.87
2018-08-17T03:14:07.526Z,3.83
2018-08-17T03:16:37.168Z,4.10
2018-08-17T03:19:06.512Z,3.03
2018-08-17T03:21:35.711Z,4.57
2018-08-17T03:24:04.716Z,4.63
2018-08-17T03:26:33.472Z,4.10
2018-08-17T03:29:03.635Z,5.70
2018-08-17T03:31:34.731Z,4.93
2018-08-17T03:34:05.185Z,3.37
2018-08-17T03:36:34.337Z,3.53
2018-08-17T03:39:04.357Z,3.93
2018-08-17T03:41:33.606Z,3.43
2018-08-17T03:44:02.700Z,3.13
2018-08-17T03:46:32.260Z,2.70
2018-08-17T03:49:08.462Z,3.27
2018-08-17T03:51:39.388Z,3.23
2018-08-17T03:54:11.768Z,3.90
2018-08-17T03:56:42.145Z,2.87
2018-08-17T03:59:11.401Z,3.57
2018-08-17T04:01:40.108Z,4.00
2018-08-17T04:04:09.797Z,4.43
2018-08-17T04:06:38.735Z,2.90
2018-08-17T04:09:12.148Z,2.70
2018-08-17T04:11:42.858Z,5.10
2018-08-17T04:14:12.236Z,5.27
2018-08-17T04:16:41.262Z,4.93
2018-08-17T04:19:10.211Z,4.70
2018-08-17T04:21:38.940Z,5.57
2018-08-17T04:24:07.904Z,6.47
2018-08-17T04:26:39.060Z,3.67
2018-08-17T04:29:09.346Z,6.23
2018-08-17T04:31:38.552Z,3.47
2018-08-17T04:34:07.320Z,6.47
2018-08-17T04:36:36.368Z,3.50
2018-08-17T04:39:06.246Z,3.40
2018-08-17T04:41:35.024Z,3.87
2018-08-17T04:44:05.281Z,4.00
2018-08-17T04:46:34.395Z,4.40
2018-08-17T04:49:03.103Z,6.40
2018-08-17T04:51:32.435Z,3.40
2018-08-17T04:54:01.521Z,4.07
2018-08-17T04:56:33.220Z,3.23
2018-08-17T04:59:03.638Z,3.93
2018-08-17T05:01:32.622Z,3.90
2018-08-17T05:04:01.788Z,4.00
2018-08-17T05:06:30.828Z,5.13
2018-08-17T05:08:59.610Z,4.07
2018-08-17T05:11:29.427Z,7.40
2018-08-17T05:14:00.422Z,3.87
2018-08-17T05:16:29.762Z,4.67
2018-08-17T05:18:58.820Z,3.07
2018-08-17T05:21:28.123Z,3.07
2018-08-17T05:23:56.868Z,3.90
2018-08-17T05:26:25.618Z,3.40
2018-08-17T05:28:55.320Z,4.83
2018-08-17T05:31:24.028Z,3.60
2018-08-17T05:33:53.260Z,4.47
2018-08-17T05:36:22.031Z,3.93
2018-08-17T05:38:50.732Z,5.67
2018-08-17T05:41:19.873Z,3.33
2018-08-17T05:43:51.535Z,4.53
2018-08-17T05:46:20.740Z,4.63
2018-08-17T05:48:49.941Z,8.93
2018-08-17T05:51:19.084Z,4.57
2018-08-17T05:53:48.517Z,5.33
2018-08-17T05:56:17.460Z,5.53
2018-08-17T05:58:48.003Z,5.73
2018-08-17T06:01:17.436Z,7.40
2018-08-17T06:03:46.455Z,9.33
2018-08-17T06:06:15.184Z,6.07
2018-08-17T06:08:44.480Z,7.47
2018-08-17T06:11:13.866Z,6.33
2018-08-17T06:13:44.175Z,7.47
2018-08-17T06:16:14.355Z,8.93
2018-08-17T06:18:43.275Z,9.50
2018-08-17T06:21:12.708Z,5.07
2018-08-17T06:23:43.843Z,6.20
2018-08-17T06:26:12.638Z,7.43
2018-08-17T06:28:42.305Z,6.33
2018-08-17T06:31:12.091Z,8.90
2018-08-17T06:33:41.119Z,9.07
2018-08-17T06:36:09.914Z,10.87
2018-08-17T06:38:38.740Z,8.93
2018-08-17T06:41:08.007Z,8.23
2018-08-17T06:43:37.438Z,6.57
2018-08-17T06:46:09.384Z,4.67
2018-08-17T06:48:40.298Z,5.83
2018-08-17T06:51:09.256Z,5.90
2018-08-17T06:53:38.432Z,10.30
2018-08-17T06:56:07.673Z,9.00
2018-08-17T06:58:36.439Z,7.87
2018-08-17T07:01:05.241Z,6.73
2018-08-17T07:03:34.611Z,10.10
2018-08-17T07:06:03.661Z,7.00
2018-08-17T07:08:32.881Z,9.73
2018-08-17T07:11:02.099Z,6.07
2018-08-17T07:13:31.517Z,4.97
2018-08-17T07:16:00.610Z,6.10
2018-08-17T07:18:31.681Z,5.67
2018-08-17T07:21:02.297Z,6.90
2018-08-17T07:23:31.792Z,4.10
2018-08-17T07:26:00.823Z,8.63
2018-08-17T07:28:29.664Z,6.87
2018-08-17T07:30:58.452Z,6.23
2018-08-17T07:33:27.824Z,5.97
2018-08-17T07:36:00.168Z,8.07
2018-08-17T07:38:32.001Z,4.77
2018-08-17T07:41:01.226Z,4.97
2018-08-17T07:43:30.228Z,8.67
2018-08-17T07:45:59.373Z,4.90
2018-08-17T07:48:28.133Z,7.33
2018-08-17T07:51:01.165Z,4.07
2018-08-17T07:53:29.982Z,5.63
2018-08-17T07:56:01.325Z,5.67
2018-08-17T07:58:32.893Z,8.77
2018-08-17T08:01:02.620Z,4.40
2018-08-17T08:03:31.862Z,6.17
2018-08-17T08:06:00.648Z,6.53
2018-08-17T08:08:29.424Z,5.33
2018-08-17T08:10:58.674Z,5.37
2018-08-17T08:13:27.566Z,5.30
2018-08-17T08:15:58.626Z,4.63
2018-08-17T08:18:27.588Z,7.70
2018-08-17T08:20:56.778Z,7.10
2018-08-17T08:23:28.751Z,4.73
2018-08-17T08:25:58.185Z,4.20
2018-08-17T08:28:27.149Z,3.53
2018-08-17T08:30:56.010Z,4.83
2018-08-17T08:33:26.468Z,5.93
2018-08-17T08:35:55.298Z,5.70
2018-08-17T08:38:24.529Z,4.03
2018-08-17T08:40:53.313Z,5.93
2018-08-17T08:43:22.074Z,4.40
2018-08-17T08:45:52.417Z,4.57
2018-08-17T08:48:22.027Z,4.60
2018-08-17T08:50:51.098Z,6.07
2018-08-17T08:53:19.886Z,5.43
2018-08-17T08:55:49.072Z,7.27
2018-08-17T08:58:17.845Z,6.47
2018-08-17T09:00:47.985Z,4.03
2018-08-17T09:03:19.325Z,5.77
2018-08-17T09:05:48.414Z,5.57
2018-08-17T09:08:17.534Z,4.83
2018-08-17T09:10:46.816Z,5.40
2018-08-17T09:13:15.772Z,4.37
2018-08-17T09:15:45.401Z,4.57
2018-08-17T09:18:16.704Z,4.97
2018-08-17T09:20:49.122Z,3.33
2018-08-17T09:23:19.043Z,8.10
2018-08-17T09:25:48.032Z,3.73
2018-08-17T09:28:17.203Z,4.70
2018-08-17T09:30:45.965Z,3.63
2018-08-17T09:33:18.052Z,6.23
2018-08-17T09:35:48.219Z,3.50
2018-08-17T09:38:18.124Z,5.07
2018-08-17T09:40:47.588Z,2.40
2018-08-17T09:43:16.524Z,3.23
2018-08-17T09:45:45.309Z,6.30
2018-08-17T09:48:14.104Z,6.17
2018-08-17T09:50:43.828Z,4.80
2018-08-17T09:53:14.663Z,4.93
2018-08-17T09:55:43.493Z,5.43
2018-08-17T09:58:12.648Z,3.87
2018-08-17T10:02:51.306Z,2.30
2018-08-17T10:05:25.281Z,3.60
2018-08-17T10:07:59.515Z,5.67
2018-08-17T10:10:28.302Z,5.73
2018-08-17T10:12:57.569Z,3.67
2018-08-17T10:15:26.516Z,2.53
2018-08-17T10:17:56.636Z,2.40
2018-08-17T10:20:25.812Z,5.23
2018-08-17T10:22:54.765Z,6.07
2018-08-17T10:25:25.285Z,3.83
2018-08-17T10:27:55.312Z,4.00
2018-08-17T10:30:24.944Z,5.83
2018-08-17T10:32:56.288Z,3.07
2018-08-17T10:35:28.898Z,4.43
2018-08-17T10:38:02.248Z,6.87
2018-08-17T10:40:31.012Z,2.83
2018-08-17T10:43:01.092Z,3.30
2018-08-17T10:45:30.894Z,4.43
2018-08-17T10:48:00.211Z,3.47
2018-08-17T10:50:30.733Z,3.50
2018-08-17T10:53:00.741Z,4.00
2018-08-17T10:55:51.321Z,3.77
2018-08-17T10:58:20.592Z,4.30
2018-08-17T11:00:49.536Z,3.27
2018-08-17T11:03:19.807Z,3.13
2018-08-17T11:05:51.728Z,2.87
2018-08-17T11:08:22.607Z,2.23
2018-08-17T11:10:52.035Z,3.10
2018-08-17T11:13:21.418Z,2.77
2018-08-17T11:15:50.257Z,4.97
2018-08-17T11:18:19.692Z,2.20
2018-08-17T11:20:49.629Z,2.35
2018-08-17T11:23:21.224Z,2.47
2018-08-17T11:25:51.372Z,3.80
2018-08-17T11:28:20.714Z,4.37
2018-08-17T11:30:49.877Z,1.93
2018-08-17T11:33:23.469Z,2.33
2018-08-17T11:35:52.733Z,4.13
2018-08-17T11:38:21.831Z,5.13
2018-08-17T11:40:52.668Z,2.98
2018-08-17T11:43:22.800Z,2.33
2018-08-17T11:45:51.620Z,4.30
2018-08-17T11:48:29.555Z,3.75
2018-08-17T11:50:58.388Z,2.10
2018-08-17T11:53:27.174Z,4.08
2018-08-17T11:55:56.276Z,3.30
2018-08-17T11:58:25.152Z,3.60
2018-08-17T12:00:56.242Z,2.55
2018-08-17T12:03:27.125Z,6.12
2018-08-17T12:05:56.372Z,3.05
2018-08-17T12:08:25.499Z,2.33
2018-08-17T12:10:58.819Z,2.50
2018-08-17T12:13:27.551Z,3.37
2018-08-17T12:15:57.474Z,4.15
2018-08-17T12:18:27.065Z,2.33
2018-08-17T12:20:57.057Z,3.60
2018-08-17T12:23:27.362Z,4.45
2018-08-17T12:26:01.177Z,6.35
2018-08-17T12:28:31.267Z,2.95
2018-08-17T12:31:00.764Z,3.62
2018-08-17T12:33:31.292Z,3.22
2018-08-17T12:36:00.319Z,3.55
2018-08-17T12:38:29.439Z,4.12
2018-08-17T12:40:59.671Z,3.40
2018-08-17T12:43:35.297Z,1.55
2018-08-17T12:46:05.007Z,1.87
2018-08-17T12:48:33.921Z,3.12
2018-08-17T12:51:04.302Z,4.90
2018-08-17T12:53:33.676Z,1.70
2018-08-17T12:56:02.839Z,3.20
2018-08-17T12:58:31.578Z,2.90
2018-08-17T13:01:04.521Z,2.22
2018-08-17T13:03:36.823Z,2.15
2018-08-17T13:06:07.707Z,2.00
2018-08-17T13:08:36.561Z,2.85
2018-08-17T13:11:05.336Z,1.77
2018-08-17T13:13:34.207Z,2.90
2018-08-17T13:16:06.241Z,3.17
2018-08-17T13:18:36.931Z,3.10
2018-08-17T13:21:05.893Z,2.67
2018-08-17T13:23:36.246Z,4.25
2018-08-17T13:26:05.980Z,3.45
2018-08-17T13:28:34.980Z,2.00
2018-08-17T13:31:04.065Z,5.87
2018-08-17T13:33:32.842Z,2.62
2018-08-17T13:36:02.034Z,2.55
2018-08-17T13:38:31.576Z,4.30
2018-08-17T13:41:03.813Z,3.12
2018-08-17T13:43:33.912Z,2.17
2018-08-17T13:46:02.808Z,3.10
2018-08-17T13:48:32.236Z,2.67
2018-08-17T13:51:01.061Z,4.10
2018-08-17T13:53:29.830Z,3.50
2018-08-17T13:56:00.229Z,2.17
2018-08-17T13:58:30.642Z,2.20
2018-08-17T14:00:59.973Z,2.02
2018-08-17T14:03:28.909Z,3.70
2018-08-17T14:05:57.735Z,3.58
2018-08-17T14:08:26.876Z,3.67
2018-08-17T14:10:55.731Z,3.42
2018-08-17T14:13:28.046Z,2.37
2018-08-17T14:15:56.893Z,4.80
2018-08-17T14:18:26.075Z,2.75
2018-08-17T14:20:54.887Z,2.55
2018-08-17T14:23:24.169Z,6.80
2018-08-17T14:25:53.340Z,3.27
2018-08-17T14:28:26.125Z,2.92
2018-08-17T14:30:55.672Z,2.35
2018-08-17T14:33:24.901Z,4.85
2018-08-17T14:35:54.214Z,4.25
2018-08-17T14:38:30.952Z,3.62
2018-08-17T14:41:00.716Z,3.72
2018-08-17T14:43:29.436Z,4.08
2018-08-17T14:45:58.257Z,4.30
2018-08-17T14:48:28.509Z,3.50
2018-08-17T14:50:57.245Z,3.30
2018-08-17T14:53:26.676Z,3.05
2018-08-17T14:55:55.692Z,3.98
2018-08-17T14:58:24.607Z,5.15
2018-08-17T15:00:54.356Z,3.92
2018-08-17T15:03:25.575Z,4.00
2018-08-17T15:05:55.556Z,4.00
2018-08-17T15:08:24.734Z,4.17
2018-08-17T15:10:54.160Z,5.15
2018-08-17T15:13:23.783Z,4.97
2018-08-17T15:15:53.010Z,5.50
2018-08-17T15:18:22.037Z,3.40
2018-08-17T15:20:53.669Z,5.03
2018-08-17T15:23:22.418Z,3.33
2018-08-17T15:25:51.193Z,5.67
2018-08-17T15:28:19.994Z,4.47
2018-08-17T15:30:48.817Z,6.03
2018-08-17T15:33:17.988Z,5.65
2018-08-17T15:35:48.580Z,5.10
2018-08-17T15:38:17.332Z,6.37
2018-08-17T15:40:46.665Z,6.00
2018-08-17T15:43:18.858Z,4.33
2018-08-17T15:45:48.807Z,7.22
2018-08-17T15:48:17.978Z,5.78
2018-08-17T15:50:49.528Z,7.50
2018-08-17T15:53:21.601Z,3.65
2018-08-17T15:55:54.983Z,3.52
2018-08-17T15:58:25.750Z,5.22
2018-08-17T16:01:04.911Z,3.50
2018-08-17T16:03:36.268Z,4.67
2018-08-17T16:06:05.759Z,6.03
2018-08-17T16:08:34.889Z,4.40
2018-08-17T16:11:03.684Z,5.42
2018-08-17T16:13:32.473Z,5.65
2018-08-17T16:16:01.265Z,7.87
2018-08-17T16:18:32.952Z,6.87
2018-08-17T16:21:03.807Z,6.80
2018-08-17T16:23:33.668Z,5.17
2018-08-17T16:26:02.525Z,3.70
2018-08-17T16:28:31.946Z,7.30
2018-08-17T16:31:01.237Z,4.00
2018-08-17T16:33:30.028Z,4.25
2018-08-17T16:35:59.810Z,5.05
2018-08-17T16:38:29.876Z,5.75
2018-08-17T16:40:58.642Z,4.90
2018-08-17T16:43:40.288Z,6.95
2018-08-17T16:46:09.459Z,3.87
2018-08-17T16:48:39.139Z,5.00
2018-08-17T16:51:07.939Z,4.60
2018-08-17T16:53:36.898Z,3.40
2018-08-17T16:56:06.299Z,7.40
2018-08-17T16:58:38.781Z,7.42
2018-08-17T17:01:08.534Z,6.78
2018-08-17T17:03:38.278Z,5.30
2018-08-17T17:06:07.287Z,2.58
2018-08-17T17:08:36.068Z,2.45
2018-08-17T17:11:05.295Z,2.65
2018-08-17T17:13:39.633Z,3.55
2018-08-17T17:16:09.536Z,3.92
2018-08-17T17:18:39.211Z,8.40
2018-08-17T17:21:08.111Z,3.72
2018-08-17T17:23:45.324Z,4.12
2018-08-17T17:26:14.386Z,4.53
2018-08-17T17:28:43.543Z,2.75
2018-08-17T17:31:16.696Z,4.30
2018-08-17T17:33:45.913Z,4.97
2018-08-17T17:36:15.913Z,2.45
2018-08-17T17:38:47.813Z,2.87
2018-08-17T17:41:18.112Z,3.77
2018-08-17T17:43:47.252Z,4.08
2018-08-17T17:46:16.045Z,4.65
2018-08-17T17:48:45.213Z,3.02
2018-08-17T17:51:14.196Z,2.67
2018-08-17T17:53:43.280Z,4.95
2018-08-17T17:56:16.753Z,9.88
2018-08-17T17:58:47.339Z,4.17
2018-08-17T18:01:16.490Z,4.65
2018-08-17T18:03:45.732Z,3.62
2018-08-17T18:06:15.576Z,5.08
2018-08-17T18:08:44.558Z,3.90
2018-08-17T18:11:13.361Z,4.95
2018-08-17T18:13:44.075Z,4.22
2018-08-17T18:16:13.349Z,6.20
2018-08-17T18:18:42.569Z,2.55
2018-08-17T18:21:12.057Z,5.37
2018-08-17T18:23:41.532Z,6.87
2018-08-17T18:26:16.084Z,2.60
2018-08-17T18:28:45.013Z,3.93
2018-08-17T18:31:14.423Z,8.23
2018-08-17T18:33:47.673Z,6.97
2018-08-17T18:36:20.074Z,6.80
2018-08-17T18:38:49.262Z,5.27
2018-08-17T18:41:19.193Z,4.57
2018-08-17T18:43:48.382Z,7.10
2018-08-17T18:46:17.121Z,4.80
2018-08-17T18:48:45.843Z,3.40
2018-08-17T18:51:15.408Z,5.90
2018-08-17T18:53:45.522Z,4.43
2018-08-17T18:56:14.481Z,6.70
2018-08-17T18:58:43.338Z,6.83
2018-08-17T19:01:12.090Z,3.63
2018-08-17T19:03:41.699Z,7.63
2018-08-17T19:06:11.207Z,7.83
2018-08-17T19:08:42.075Z,6.43
2018-08-17T19:11:13.469Z,6.60
2018-08-17T19:13:43.908Z,4.97
2018-08-17T19:16:12.795Z,5.73
2018-08-17T19:18:41.619Z,8.07
2018-08-17T19:21:12.098Z,5.50
2018-08-17T19:23:40.922Z,5.47
2018-08-17T19:26:10.297Z,4.83
2018-08-17T19:28:40.481Z,5.87
2018-08-17T19:31:10.209Z,4.70
2018-08-17T19:33:40.690Z,7.37
2018-08-17T19:36:09.910Z,6.37
2018-08-17T19:38:43.205Z,5.53
2018-08-17T19:41:12.641Z,6.13
2018-08-17T19:43:42.334Z,5.27
2018-08-17T19:46:11.133Z,6.77
2018-08-17T19:48:41.000Z,5.83
2018-08-17T19:51:15.862Z,4.73
2018-08-17T19:53:45.231Z,6.77
2018-08-17T19:56:14.374Z,4.87
2018-08-17T19:58:43.344Z,6.63
2018-08-17T20:01:12.430Z,6.00
2018-08-17T20:03:41.827Z,7.63
2018-08-17T20:06:12.141Z,10.17
2018-08-17T20:08:40.914Z,5.50
2018-08-17T20:11:09.882Z,6.97
2018-08-17T20:13:38.755Z,6.30
2018-08-17T20:16:16.943Z,7.17
2018-08-17T20:18:46.122Z,7.93
2018-08-17T20:21:15.069Z,7.77
2018-08-17T20:23:45.257Z,7.50
2018-08-17T20:26:14.216Z,6.70
2018-08-17T20:28:43.289Z,8.90
2018-08-17T20:31:12.140Z,6.90
2018-08-17T20:33:40.906Z,8.57
2018-08-17T20:36:14.407Z,7.60
2018-08-17T20:38:47.664Z,9.03
2018-08-17T20:41:17.424Z,6.97
2018-08-17T20:43:47.038Z,6.03
2018-08-17T20:46:16.074Z,5.47
2018-08-17T20:48:48.529Z,5.60
2018-08-17T20:51:22.633Z,7.17
2018-08-17T20:53:55.136Z,6.23
2018-08-17T20:56:24.462Z,5.33
2018-08-17T20:58:53.377Z,3.70
2018-08-17T21:01:22.505Z,5.57
2018-08-17T21:03:51.646Z,7.13
2018-08-17T21:06:23.132Z,5.63
2018-08-17T21:08:52.038Z,7.53
2018-08-17T21:11:20.922Z,7.00
2018-08-17T21:13:49.801Z,7.03
2018-08-17T21:16:19.074Z,9.23
2018-08-17T21:18:48.349Z,7.90
2018-08-17T21:21:17.896Z,13.70
2018-08-17T21:23:49.220Z,6.47
2018-08-17T21:26:17.992Z,8.53
2018-08-17T21:28:47.196Z,7.20
2018-08-17T21:31:16.932Z,8.47
2018-08-17T21:33:45.944Z,8.70
2018-08-17T21:36:15.375Z,8.23
2018-08-17T21:38:47.782Z,6.80
2018-08-17T21:41:17.455Z,10.17
2018-08-17T21:43:48.407Z,7.33
2018-08-17T21:46:17.479Z,10.30
2018-08-17T21:48:48.178Z,7.90
2018-08-17T21:51:17.008Z,8.13
2018-08-17T21:53:46.145Z,11.37
2018-08-17T21:56:18.923Z,7.27
2018-08-17T21:58:48.281Z,9.73
2018-08-17T22:01:17.091Z,8.70
2018-08-17T22:03:46.104Z,9.87
2018-08-17T22:06:15.089Z,5.63
2018-08-17T22:08:43.908Z,8.53
2018-08-17T22:11:13.320Z,8.37
2018-08-17T22:13:44.735Z,10.90
2018-08-17T22:16:14.231Z,10.10
2018-08-17T22:18:43.656Z,8.10
2018-08-17T22:21:12.832Z,10.63
2018-08-17T22:23:41.733Z,8.33
2018-08-17T22:26:10.864Z,9.23
2018-08-17T22:28:40.432Z,8.93
2018-08-17T22:31:10.193Z,8.80
2018-08-17T22:33:39.425Z,7.97
2018-08-17T22:36:12.807Z,11.13
2018-08-17T22:38:45.608Z,9.33
2018-08-17T22:41:15.407Z,6.43
2018-08-17T22:43:44.471Z,9.53
2018-08-17T22:46:13.590Z,11.63
2018-08-17T22:48:43.231Z,10.57
2018-08-17T22:51:12.700Z,9.37
2018-08-17T22:53:41.908Z,5.83
2018-08-17T22:56:10.636Z,7.67
2018-08-17T22:58:44.957Z,7.70
2018-08-17T23:01:14.140Z,6.53
2018-08-17T23:04:01.590Z,9.03
2018-08-17T23:06:30.521Z,9.17
2018-08-17T23:08:59.961Z,8.53
2018-08-17T23:11:36.351Z,8.47
2018-08-17T23:14:13.812Z,8.90
2018-08-17T23:16:43.592Z,9.13
2018-08-17T23:19:13.056Z,7.63
2018-08-17T23:21:42.188Z,11.90
2018-08-17T23:24:11.341Z,6.53
2018-08-17T23:26:40.687Z,8.70
2018-08-17T23:29:10.700Z,10.83
2018-08-17T23:31:39.496Z,7.93
2018-08-17T23:34:08.923Z,5.63
2018-08-17T23:36:37.770Z,8.83
2018-08-17T23:39:09.624Z,9.00
2018-08-17T23:41:38.988Z,11.33
2018-08-17T23:44:12.583Z,6.63
2018-08-17T23:46:45.347Z,9.73
2018-08-17T23:49:14.743Z,8.73
2018-08-17T23:51:44.278Z,10.70
2018-08-17T23:54:13.191Z,11.03
2018-08-17T23:56:42.237Z,8.57
2018-08-17T23:59:10.984Z,8.73
